USCGC Elm — NRPK — position and weather

sailwx.info

Track history (hours):
 
Tides and Currents Weather Stations Pressure Air Temp Water Temp Dewpoint Dewpoint Depression Visibility Wind Speed Wind Dir Waves Ship Positions

USCGC Elm

Last reported at 2016-Sep-26 13:33 UTC. Time now 2016-Sep-28 15:24 UTC.
Position N 34°40' W 076°40'.

Length 68 m; draft 4 m.

Type: Military. MMSI: 366951000.

Date/timePositionNaut miles runAvg speedWind from/ knotsBaromVisibWave heightAir tempDewpointWater temp
2016-Sep-26 13:33N 34°40' W 076°40'2 0.8
2016-Sep-26 11:32N 34°42' W 076°41'0 0.0
2016-Sep-26 08:32N 34°42' W 076°41'0 0.0
2016-Sep-26 02:32N 34°42' W 076°41'0 0.0
2016-Sep-26 01:32N 34°42' W 076°41'0 0.0
2016-Sep-26 00:32N 34°42' W 076°41'0 0.0
2016-Sep-25 21:32N 34°42' W 076°41'0 0.0
2016-Sep-25 17:29N 34°42' W 076°41'0 0.0
2016-Sep-25 16:32N 34°42' W 076°41'0 0.0
2016-Sep-25 15:32N 34°42' W 076°41'0 0.0
2016-Sep-25 14:32N 34°42' W 076°41'0 0.0
2016-Sep-25 12:32N 34°42' W 076°41'0 0.0
2016-Sep-25 11:32N 34°42' W 076°41'0 0.0
2016-Sep-25 10:32N 34°42' W 076°41'0 0.0
2016-Sep-25 09:32N 34°42' W 076°41'0 0.0
2016-Sep-25 07:32N 34°42' W 076°41'0 0.0
2016-Sep-25 04:32N 34°42' W 076°41'0 0.0
2016-Sep-25 00:32N 34°42' W 076°41'0 0.0
2016-Sep-24 22:29N 34°42' W 076°41'0 0.0
2016-Sep-24 21:32N 34°42' W 076°41'0 0.0
2016-Sep-24 19:32N 34°42' W 076°41'0 0.0
2016-Sep-24 18:32N 34°42' W 076°41'0 0.0
2016-Sep-24 17:31N 34°42' W 076°41'0 0.0
2016-Sep-24 16:31N 34°42' W 076°41'0 0.0
2016-Sep-24 14:25N 34°42' W 076°41'0 0.0
2016-Sep-24 12:28N 34°42' W 076°41'0 0.0
2016-Sep-24 10:31N 34°42' W 076°41'0 0.0
2016-Sep-24 09:31N 34°42' W 076°41'0 0.0
2016-Sep-24 03:28N 34°42' W 076°41'0 0.0
2016-Sep-24 02:26N 34°42' W 076°41'0 0.0
2016-Sep-24 01:32N 34°42' W 076°41'0 0.0
2016-Sep-24 00:31N 34°42' W 076°41'0 0.0
2016-Sep-23 19:31N 34°42' W 076°41'0 0.0
2016-Sep-23 17:32N 34°42' W 076°41'0 0.0
2016-Sep-23 16:32N 34°42' W 076°41'0 0.0
2016-Sep-23 15:32N 34°42' W 076°41'0 0.0
2016-Sep-23 13:28N 34°42' W 076°41'0 0.0
2016-Sep-23 09:31N 34°42' W 076°41'0 0.0
2016-Sep-23 06:31N 34°42' W 076°41'0 0.0
2016-Sep-23 04:31N 34°42' W 076°41'0 0.0
2016-Sep-22 04:28N 34°42' W 076°41'0 0.0
2016-Sep-22 03:31N 34°42' W 076°41'0 0.0
2016-Sep-22 00:31N 34°42' W 076°41'0 0.0
2016-Sep-21 23:31N 34°42' W 076°41'0 0.0
2016-Sep-21 22:32N 34°42' W 076°41'0 0.0
2016-Sep-21 19:28N 34°42' W 076°41'0 0.0
2016-Sep-21 16:31N 34°42' W 076°41'10 1.4
2016-Sep-21 09:33N 34°32' W 076°39'7 6.8
2016-Sep-21 08:33N 34°26' W 076°35'146 9.8
2016-Sep-20 17:33N 36°48' W 075°55'18810.4
2016-Sep-19 23:33N 39°30' W 073°54'17 4.2
2016-Sep-19 19:33N 39°46' W 073°46'1010.3
2016-Sep-19 18:33N 39°46' W 073°59'2 1.1
2016-Sep-19 16:33N 39°44' W 074°01'19 9.7
2016-Sep-19 14:33N 39°28' W 074°16'2 1.6
2016-Sep-19 13:27N 39°26' W 074°16'58 1.7
2016-Sep-18 02:30N 38°39' W 074°58'0 0.0
2016-Sep-18 01:32N 38°39' W 074°58'0 0.0
2016-Sep-18 00:33N 38°39' W 074°58'2010.0
2016-Sep-17 22:33N 38°50' W 074°37'0 0.0
2016-Sep-17 21:33N 38°50' W 074°37'3 3.4
2016-Sep-17 20:33N 38°47' W 074°35'0 0.0
2016-Sep-17 19:16N 38°47' W 074°35'20 3.6
2016-Sep-17 13:33N 38°27' W 074°42'0 0.1
2016-Sep-17 12:28N 38°27' W 074°42'6 3.1
2016-Sep-17 10:32N 38°27' W 074°49'0 0.0
2016-Sep-17 07:23N 38°27' W 074°49'  
Track history (hours):
 
Tides and Currents Weather Stations Pressure Air Temp Water Temp Dewpoint Dewpoint Depression Visibility Wind Speed Wind Dir Waves Ship Positions

USCGC Elm

Last reported at 2016-Sep-26 13:33 UTC. Time now 2016-Sep-28 15:24 UTC.
Position N 34°40' W 076°40'.

Length 68 m; draft 4 m.

Type: Military. MMSI: 366951000.

Date/timePositionNaut miles runAvg speedWind from/ knotsBaromVisibWave heightAir tempDewpointWater temp
2016-Sep-26 13:33N 34°40' W 076°40'2 0.8
2016-Sep-26 11:32N 34°42' W 076°41'0 0.0
2016-Sep-26 08:32N 34°42' W 076°41'0 0.0
2016-Sep-26 02:32N 34°42' W 076°41'0 0.0
2016-Sep-26 01:32N 34°42' W 076°41'0 0.0
2016-Sep-26 00:32N 34°42' W 076°41'0 0.0
2016-Sep-25 21:32N 34°42' W 076°41'0 0.0
2016-Sep-25 17:29N 34°42' W 076°41'0 0.0
2016-Sep-25 16:32N 34°42' W 076°41'0 0.0
2016-Sep-25 15:32N 34°42' W 076°41'0 0.0
2016-Sep-25 14:32N 34°42' W 076°41'0 0.0
2016-Sep-25 12:32N 34°42' W 076°41'0 0.0
2016-Sep-25 11:32N 34°42' W 076°41'0 0.0
2016-Sep-25 10:32N 34°42' W 076°41'0 0.0
2016-Sep-25 09:32N 34°42' W 076°41'0 0.0
2016-Sep-25 07:32N 34°42' W 076°41'0 0.0
2016-Sep-25 04:32N 34°42' W 076°41'0 0.0
2016-Sep-25 00:32N 34°42' W 076°41'0 0.0
2016-Sep-24 22:29N 34°42' W 076°41'0 0.0
2016-Sep-24 21:32N 34°42' W 076°41'0 0.0
2016-Sep-24 19:32N 34°42' W 076°41'0 0.0
2016-Sep-24 18:32N 34°42' W 076°41'0 0.0
2016-Sep-24 17:31N 34°42' W 076°41'0 0.0
2016-Sep-24 16:31N 34°42' W 076°41'0 0.0
2016-Sep-24 14:25N 34°42' W 076°41'0 0.0
2016-Sep-24 12:28N 34°42' W 076°41'0 0.0
2016-Sep-24 10:31N 34°42' W 076°41'0 0.0
2016-Sep-24 09:31N 34°42' W 076°41'0 0.0
2016-Sep-24 03:28N 34°42' W 076°41'0 0.0
2016-Sep-24 02:26N 34°42' W 076°41'0 0.0
2016-Sep-24 01:32N 34°42' W 076°41'0 0.0
2016-Sep-24 00:31N 34°42' W 076°41'0 0.0
2016-Sep-23 19:31N 34°42' W 076°41'0 0.0
2016-Sep-23 17:32N 34°42' W 076°41'0 0.0
2016-Sep-23 16:32N 34°42' W 076°41'0 0.0
2016-Sep-23 15:32N 34°42' W 076°41'0 0.0
2016-Sep-23 13:28N 34°42' W 076°41'0 0.0
2016-Sep-23 09:31N 34°42' W 076°41'0 0.0
2016-Sep-23 06:31N 34°42' W 076°41'0 0.0
2016-Sep-23 04:31N 34°42' W 076°41'0 0.0
2016-Sep-22 04:28N 34°42' W 076°41'0 0.0
2016-Sep-22 03:31N 34°42' W 076°41'0 0.0
2016-Sep-22 00:31N 34°42' W 076°41'0 0.0
2016-Sep-21 23:31N 34°42' W 076°41'0 0.0
2016-Sep-21 22:32N 34°42' W 076°41'0 0.0
2016-Sep-21 19:28N 34°42' W 076°41'0 0.0
2016-Sep-21 16:31N 34°42' W 076°41'10 1.4
2016-Sep-21 09:33N 34°32' W 076°39'7 6.8
2016-Sep-21 08:33N 34°26' W 076°35'146 9.8
2016-Sep-20 17:33N 36°48' W 075°55'18810.4
2016-Sep-19 23:33N 39°30' W 073°54'17 4.2
2016-Sep-19 19:33N 39°46' W 073°46'1010.3
2016-Sep-19 18:33N 39°46' W 073°59'2 1.1
2016-Sep-19 16:33N 39°44' W 074°01'19 9.7
2016-Sep-19 14:33N 39°28' W 074°16'2 1.6
2016-Sep-19 13:27N 39°26' W 074°16'58 1.7
2016-Sep-18 02:30N 38°39' W 074°58'0 0.0
2016-Sep-18 01:32N 38°39' W 074°58'0 0.0
2016-Sep-18 00:33N 38°39' W 074°58'2010.0
2016-Sep-17 22:33N 38°50' W 074°37'0 0.0
2016-Sep-17 21:33N 38°50' W 074°37'3 3.4
2016-Sep-17 20:33N 38°47' W 074°35'0 0.0
2016-Sep-17 19:16N 38°47' W 074°35'20 3.6
2016-Sep-17 13:33N 38°27' W 074°42'0 0.1
2016-Sep-17 12:28N 38°27' W 074°42'6 3.1
2016-Sep-17 10:32N 38°27' W 074°49'0 0.0
2016-Sep-17 07:23N 38°27' W 074°49'  

Dump ship's entire track history